sensor_id;sensor_type;location;lat;lon;timestamp;P1;durP1;ratioP1;P2;durP2;ratioP2
76536;SDS011;65381;51.254;15.592;2023-02-15T00:00:22;5.07;;;2.95;;
76536;SDS011;65381;51.254;15.592;2023-02-15T00:03:11;11.95;;;2.05;;
76536;SDS011;65381;51.254;15.592;2023-02-15T00:05:39;1.83;;;1.38;;
76536;SDS011;65381;51.254;15.592;2023-02-15T00:11:20;1.23;;;1.13;;
76536;SDS011;65381;51.254;15.592;2023-02-15T00:14:12;4.70;;;1.85;;
76536;SDS011;65381;51.254;15.592;2023-02-15T00:16:42;0.65;;;0.65;;
76536;SDS011;65381;51.254;15.592;2023-02-15T00:19:12;4.22;;;3.75;;
76536;SDS011;65381;51.254;15.592;2023-02-15T00:21:42;7.60;;;3.47;;
76536;SDS011;65381;51.254;15.592;2023-02-15T00:24:12;6.57;;;3.35;;
76536;SDS011;65381;51.254;15.592;2023-02-15T00:26:42;5.07;;;2.28;;
76536;SDS011;65381;51.254;15.592;2023-02-15T00:29:12;5.00;;;3.53;;
76536;SDS011;65381;51.254;15.592;2023-02-15T00:31:41;4.88;;;2.45;;
76536;SDS011;65381;51.254;15.592;2023-02-15T00:34:14;3.35;;;2.53;;
76536;SDS011;65381;51.254;15.592;2023-02-15T00:36:45;11.88;;;5.88;;
76536;SDS011;65381;51.254;15.592;2023-02-15T00:39:14;3.08;;;1.88;;
76536;SDS011;65381;51.254;15.592;2023-02-15T00:41:43;17.27;;;11.55;;
76536;SDS011;65381;51.254;15.592;2023-02-15T00:44:13;0.55;;;0.55;;
76536;SDS011;65381;51.254;15.592;2023-02-15T00:46:41;0.80;;;0.80;;
76536;SDS011;65381;51.254;15.592;2023-02-15T00:49:10;4.97;;;1.55;;
76536;SDS011;65381;51.254;15.592;2023-02-15T00:51:38;2.08;;;1.98;;
76536;SDS011;65381;51.254;15.592;2023-02-15T00:54:07;4.55;;;1.63;;
76536;SDS011;65381;51.254;15.592;2023-02-15T00:56:35;0.10;;;0.10;;
76536;SDS011;65381;51.254;15.592;2023-02-15T00:59:03;1.77;;;1.67;;
76536;SDS011;65381;51.254;15.592;2023-02-15T01:01:32;3.28;;;2.97;;
76536;SDS011;65381;51.254;15.592;2023-02-15T01:04:01;0.82;;;0.75;;
76536;SDS011;65381;51.254;15.592;2023-02-15T01:06:29;3.80;;;3.55;;
76536;SDS011;65381;51.254;15.592;2023-02-15T01:08:57;1.40;;;1.35;;
76536;SDS011;65381;51.254;15.592;2023-02-15T01:11:25;19.60;;;4.05;;
76536;SDS011;65381;51.254;15.592;2023-02-15T01:13:57;0.45;;;0.45;;
76536;SDS011;65381;51.254;15.592;2023-02-15T01:16:26;2.90;;;2.72;;
76536;SDS011;65381;51.254;15.592;2023-02-15T01:18:56;15.80;;;6.07;;
76536;SDS011;65381;51.254;15.592;2023-02-15T01:21:25;0.35;;;0.35;;
76536;SDS011;65381;51.254;15.592;2023-02-15T01:23:53;2.13;;;2.03;;
76536;SDS011;65381;51.254;15.592;2023-02-15T01:26:21;4.10;;;1.33;;
76536;SDS011;65381;51.254;15.592;2023-02-15T01:28:50;1.02;;;1.02;;
76536;SDS011;65381;51.254;15.592;2023-02-15T01:31:18;2.45;;;2.20;;
76536;SDS011;65381;51.254;15.592;2023-02-15T01:33:48;2.20;;;2.05;;
76536;SDS011;65381;51.254;15.592;2023-02-15T01:36:16;6.13;;;4.72;;
76536;SDS011;65381;51.254;15.592;2023-02-15T01:38:45;0.20;;;0.20;;
76536;SDS011;65381;51.254;15.592;2023-02-15T01:41:13;5.50;;;1.95;;
76536;SDS011;65381;51.254;15.592;2023-02-15T01:43:50;0.60;;;0.60;;
76536;SDS011;65381;51.254;15.592;2023-02-15T01:49:08;4.90;;;2.38;;
76536;SDS011;65381;51.254;15.592;2023-02-15T01:51:42;1.52;;;1.45;;
76536;SDS011;65381;51.254;15.592;2023-02-15T01:54:17;0.10;;;0.10;;
76536;SDS011;65381;51.254;15.592;2023-02-15T01:57:09;0.03;;;0.03;;
76536;SDS011;65381;51.254;15.592;2023-02-15T01:59:41;0.08;;;0.08;;
76536;SDS011;65381;51.254;15.592;2023-02-15T02:02:13;0.00;;;0.00;;
76536;SDS011;65381;51.254;15.592;2023-02-15T02:04:46;0.43;;;0.40;;
76536;SDS011;65381;51.254;15.592;2023-02-15T02:07:19;0.88;;;0.88;;
76536;SDS011;65381;51.254;15.592;2023-02-15T02:09:49;7.80;;;1.92;;
76536;SDS011;65381;51.254;15.592;2023-02-15T02:12:18;0.95;;;0.93;;
76536;SDS011;65381;51.254;15.592;2023-02-15T02:14:47;5.47;;;2.58;;
76536;SDS011;65381;51.254;15.592;2023-02-15T02:19:55;4.03;;;1.50;;
76536;SDS011;65381;51.254;15.592;2023-02-15T02:28:48;10.45;;;7.15;;
76536;SDS011;65381;51.254;15.592;2023-02-15T02:35:00;3.75;;;2.58;;
76536;SDS011;65381;51.254;15.592;2023-02-15T02:37:36;2.40;;;2.20;;
76536;SDS011;65381;51.254;15.592;2023-02-15T02:40:28;0.15;;;0.13;;
76536;SDS011;65381;51.254;15.592;2023-02-15T02:43:18;2.53;;;1.65;;
76536;SDS011;65381;51.254;15.592;2023-02-15T02:45:57;2.13;;;1.67;;
76536;SDS011;65381;51.254;15.592;2023-02-15T02:48:41;2.45;;;2.35;;
76536;SDS011;65381;51.254;15.592;2023-02-15T02:51:12;0.82;;;0.73;;
76536;SDS011;65381;51.254;15.592;2023-02-15T02:53:41;1.83;;;1.73;;
76536;SDS011;65381;51.254;15.592;2023-02-15T02:56:29;1.58;;;0.85;;
76536;SDS011;65381;51.254;15.592;2023-02-15T02:59:02;5.00;;;2.05;;
76536;SDS011;65381;51.254;15.592;2023-02-15T03:01:45;0.00;;;0.00;;
76536;SDS011;65381;51.254;15.592;2023-02-15T03:04:24;2.88;;;2.67;;
76536;SDS011;65381;51.254;15.592;2023-02-15T03:07:00;0.32;;;0.32;;
76536;SDS011;65381;51.254;15.592;2023-02-15T03:09:51;0.60;;;0.60;;
76536;SDS011;65381;51.254;15.592;2023-02-15T03:12:24;0.08;;;0.08;;
76536;SDS011;65381;51.254;15.592;2023-02-15T03:15:04;1.92;;;1.83;;
76536;SDS011;65381;51.254;15.592;2023-02-15T03:17:38;1.17;;;0.55;;
76536;SDS011;65381;51.254;15.592;2023-02-15T03:23:00;4.95;;;2.08;;
76536;SDS011;65381;51.254;15.592;2023-02-15T03:25:37;0.30;;;0.17;;
76536;SDS011;65381;51.254;15.592;2023-02-15T03:28:19;0.00;;;0.00;;
76536;SDS011;65381;51.254;15.592;2023-02-15T03:30:53;0.00;;;0.00;;
76536;SDS011;65381;51.254;15.592;2023-02-15T03:33:26;0.30;;;0.10;;
76536;SDS011;65381;51.254;15.592;2023-02-15T03:36:04;0.00;;;0.00;;
76536;SDS011;65381;51.254;15.592;2023-02-15T03:44:35;0.00;;;0.00;;
76536;SDS011;65381;51.254;15.592;2023-02-15T03:47:10;0.00;;;0.00;;
76536;SDS011;65381;51.254;15.592;2023-02-15T03:52:26;0.00;;;0.00;;
76536;SDS011;65381;51.254;15.592;2023-02-15T03:54:56;1.48;;;1.38;;
76536;SDS011;65381;51.254;15.592;2023-02-15T03:57:26;1.15;;;1.10;;
76536;SDS011;65381;51.254;15.592;2023-02-15T04:00:19;6.32;;;3.35;;
76536;SDS011;65381;51.254;15.592;2023-02-15T04:05:44;2.35;;;0.95;;
76536;SDS011;65381;51.254;15.592;2023-02-15T04:08:12;0.20;;;0.20;;
76536;SDS011;65381;51.254;15.592;2023-02-15T04:10:41;2.63;;;2.53;;
76536;SDS011;65381;51.254;15.592;2023-02-15T04:13:29;0.52;;;0.52;;
76536;SDS011;65381;51.254;15.592;2023-02-15T04:15:58;5.68;;;2.67;;
76536;SDS011;65381;51.254;15.592;2023-02-15T04:18:39;2.17;;;2.05;;
76536;SDS011;65381;51.254;15.592;2023-02-15T04:21:28;1.98;;;0.85;;
76536;SDS011;65381;51.254;15.592;2023-02-15T04:24:16;0.40;;;0.40;;
76536;SDS011;65381;51.254;15.592;2023-02-15T04:27:04;0.47;;;0.32;;
76536;SDS011;65381;51.254;15.592;2023-02-15T04:29:32;1.25;;;0.98;;
76536;SDS011;65381;51.254;15.592;2023-02-15T04:32:01;0.08;;;0.08;;
76536;SDS011;65381;51.254;15.592;2023-02-15T04:34:29;5.47;;;1.73;;
76536;SDS011;65381;51.254;15.592;2023-02-15T04:36:58;2.15;;;2.03;;
76536;SDS011;65381;51.254;15.592;2023-02-15T04:39:26;0.95;;;0.73;;
76536;SDS011;65381;51.254;15.592;2023-02-15T04:41:54;0.03;;;0.03;;
76536;SDS011;65381;51.254;15.592;2023-02-15T04:44:23;1.15;;;0.85;;
76536;SDS011;65381;51.254;15.592;2023-02-15T04:46:51;0.90;;;0.90;;
76536;SDS011;65381;51.254;15.592;2023-02-15T04:49:19;4.13;;;2.25;;
76536;SDS011;65381;51.254;15.592;2023-02-15T04:51:47;1.50;;;1.40;;
76536;SDS011;65381;51.254;15.592;2023-02-15T04:54:16;3.88;;;1.25;;
76536;SDS011;65381;51.254;15.592;2023-02-15T04:56:44;1.08;;;0.98;;
76536;SDS011;65381;51.254;15.592;2023-02-15T04:59:13;1.70;;;1.40;;
76536;SDS011;65381;51.254;15.592;2023-02-15T05:01:41;0.82;;;0.70;;
76536;SDS011;65381;51.254;15.592;2023-02-15T05:04:10;0.98;;;0.98;;
76536;SDS011;65381;51.254;15.592;2023-02-15T05:06:38;0.35;;;0.35;;
76536;SDS011;65381;51.254;15.592;2023-02-15T05:09:06;0.10;;;0.10;;
76536;SDS011;65381;51.254;15.592;2023-02-15T05:11:34;1.42;;;1.25;;
76536;SDS011;65381;51.254;15.592;2023-02-15T05:14:02;0.28;;;0.13;;
76536;SDS011;65381;51.254;15.592;2023-02-15T05:16:31;0.10;;;0.10;;
76536;SDS011;65381;51.254;15.592;2023-02-15T05:18:59;0.88;;;0.85;;
76536;SDS011;65381;51.254;15.592;2023-02-15T05:21:27;0.60;;;0.60;;
76536;SDS011;65381;51.254;15.592;2023-02-15T05:23:55;0.40;;;0.40;;
76536;SDS011;65381;51.254;15.592;2023-02-15T05:26:24;1.95;;;1.85;;
76536;SDS011;65381;51.254;15.592;2023-02-15T05:29:10;8.68;;;0.98;;
76536;SDS011;65381;51.254;15.592;2023-02-15T05:31:39;1.85;;;1.20;;
76536;SDS011;65381;51.254;15.592;2023-02-15T05:34:07;0.00;;;0.00;;
76536;SDS011;65381;51.254;15.592;2023-02-15T05:36:35;0.40;;;0.40;;
76536;SDS011;65381;51.254;15.592;2023-02-15T05:39:03;0.55;;;0.55;;
76536;SDS011;65381;51.254;15.592;2023-02-15T05:41:33;3.30;;;0.98;;
76536;SDS011;65381;51.254;15.592;2023-02-15T05:44:01;0.73;;;0.73;;
76536;SDS011;65381;51.254;15.592;2023-02-15T05:46:29;0.52;;;0.52;;
76536;SDS011;65381;51.254;15.592;2023-02-15T05:48:57;7.88;;;1.40;;
76536;SDS011;65381;51.254;15.592;2023-02-15T05:51:25;0.73;;;0.73;;
76536;SDS011;65381;51.254;15.592;2023-02-15T05:53:53;2.05;;;1.55;;
76536;SDS011;65381;51.254;15.592;2023-02-15T05:56:21;4.93;;;1.52;;
76536;SDS011;65381;51.254;15.592;2023-02-15T05:58:52;0.00;;;0.00;;
76536;SDS011;65381;51.254;15.592;2023-02-15T06:01:22;5.57;;;2.65;;
76536;SDS011;65381;51.254;15.592;2023-02-15T06:03:51;0.40;;;0.40;;
76536;SDS011;65381;51.254;15.592;2023-02-15T06:06:19;2.45;;;2.25;;
76536;SDS011;65381;51.254;15.592;2023-02-15T06:08:47;5.18;;;3.55;;
76536;SDS011;65381;51.254;15.592;2023-02-15T06:11:16;3.92;;;1.77;;
76536;SDS011;65381;51.254;15.592;2023-02-15T06:13:44;0.93;;;0.93;;
76536;SDS011;65381;51.254;15.592;2023-02-15T06:16:12;0.95;;;0.95;;
76536;SDS011;65381;51.254;15.592;2023-02-15T06:18:43;0.28;;;0.28;;
76536;SDS011;65381;51.254;15.592;2023-02-15T06:21:11;2.15;;;1.95;;
76536;SDS011;65381;51.254;15.592;2023-02-15T06:23:39;0.73;;;0.45;;
76536;SDS011;65381;51.254;15.592;2023-02-15T06:26:08;1.73;;;1.27;;
76536;SDS011;65381;51.254;15.592;2023-02-15T06:28:36;3.03;;;2.65;;
76536;SDS011;65381;51.254;15.592;2023-02-15T06:31:05;0.03;;;0.03;;
76536;SDS011;65381;51.254;15.592;2023-02-15T06:33:33;0.00;;;0.00;;
76536;SDS011;65381;51.254;15.592;2023-02-15T06:36:02;0.00;;;0.00;;
76536;SDS011;65381;51.254;15.592;2023-02-15T06:38:31;1.00;;;0.15;;
76536;SDS011;65381;51.254;15.592;2023-02-15T06:40:59;0.43;;;0.43;;
76536;SDS011;65381;51.254;15.592;2023-02-15T06:43:27;0.65;;;0.65;;
76536;SDS011;65381;51.254;15.592;2023-02-15T06:45:57;1.88;;;1.77;;
76536;SDS011;65381;51.254;15.592;2023-02-15T06:48:26;1.50;;;1.40;;
76536;SDS011;65381;51.254;15.592;2023-02-15T06:50:54;0.35;;;0.35;;
76536;SDS011;65381;51.254;15.592;2023-02-15T06:53:22;1.33;;;1.27;;
76536;SDS011;65381;51.254;15.592;2023-02-15T06:55:51;0.00;;;0.00;;
76536;SDS011;65381;51.254;15.592;2023-02-15T06:58:19;0.25;;;0.25;;
76536;SDS011;65381;51.254;15.592;2023-02-15T07:00:48;0.03;;;0.03;;
76536;SDS011;65381;51.254;15.592;2023-02-15T07:03:17;2.28;;;1.55;;
76536;SDS011;65381;51.254;15.592;2023-02-15T07:05:45;2.30;;;2.10;;
76536;SDS011;65381;51.254;15.592;2023-02-15T07:08:15;0.00;;;0.00;;
76536;SDS011;65381;51.254;15.592;2023-02-15T07:10:44;2.92;;;2.65;;
76536;SDS011;65381;51.254;15.592;2023-02-15T07:13:12;0.00;;;0.00;;
76536;SDS011;65381;51.254;15.592;2023-02-15T07:15:40;3.42;;;1.75;;
76536;SDS011;65381;51.254;15.592;2023-02-15T07:18:08;3.72;;;3.53;;
76536;SDS011;65381;51.254;15.592;2023-02-15T07:20:38;0.40;;;0.40;;
76536;SDS011;65381;51.254;15.592;2023-02-15T07:23:08;4.05;;;2.25;;
76536;SDS011;65381;51.254;15.592;2023-02-15T07:25:36;1.90;;;1.73;;
76536;SDS011;65381;51.254;15.592;2023-02-15T07:28:04;3.40;;;3.13;;
76536;SDS011;65381;51.254;15.592;2023-02-15T07:30:33;2.15;;;1.80;;
76536;SDS011;65381;51.254;15.592;2023-02-15T07:33:03;1.98;;;1.88;;
76536;SDS011;65381;51.254;15.592;2023-02-15T07:35:50;2.97;;;2.30;;
76536;SDS011;65381;51.254;15.592;2023-02-15T07:38:20;0.00;;;0.00;;
76536;SDS011;65381;51.254;15.592;2023-02-15T07:40:50;0.00;;;0.00;;
76536;SDS011;65381;51.254;15.592;2023-02-15T07:43:18;0.08;;;0.08;;
76536;SDS011;65381;51.254;15.592;2023-02-15T07:45:47;0.00;;;0.00;;
76536;SDS011;65381;51.254;15.592;2023-02-15T07:48:15;0.25;;;0.25;;
76536;SDS011;65381;51.254;15.592;2023-02-15T07:50:43;8.43;;;3.60;;
76536;SDS011;65381;51.254;15.592;2023-02-15T07:53:11;9.82;;;3.90;;
76536;SDS011;65381;51.254;15.592;2023-02-15T07:55:39;4.55;;;1.85;;
76536;SDS011;65381;51.254;15.592;2023-02-15T07:58:07;5.35;;;4.57;;
76536;SDS011;65381;51.254;15.592;2023-02-15T08:00:36;0.00;;;0.00;;
76536;SDS011;65381;51.254;15.592;2023-02-15T08:03:23;0.25;;;0.25;;
76536;SDS011;65381;51.254;15.592;2023-02-15T08:05:57;4.40;;;2.55;;
76536;SDS011;65381;51.254;15.592;2023-02-15T08:08:29;5.05;;;4.28;;
76536;SDS011;65381;51.254;15.592;2023-02-15T08:13:49;2.65;;;2.13;;
76536;SDS011;65381;51.254;15.592;2023-02-15T08:19:17;2.20;;;1.92;;
76536;SDS011;65381;51.254;15.592;2023-02-15T08:21:48;4.45;;;3.17;;
76536;SDS011;65381;51.254;15.592;2023-02-15T08:24:21;6.95;;;3.10;;
76536;SDS011;65381;51.254;15.592;2023-02-15T08:26:50;8.27;;;4.30;;
76536;SDS011;65381;51.254;15.592;2023-02-15T08:29:20;11.70;;;6.15;;
76536;SDS011;65381;51.254;15.592;2023-02-15T08:31:55;13.45;;;6.40;;
76536;SDS011;65381;51.254;15.592;2023-02-15T08:34:30;12.23;;;4.30;;
76536;SDS011;65381;51.254;15.592;2023-02-15T08:37:00;11.63;;;6.38;;
76536;SDS011;65381;51.254;15.592;2023-02-15T08:39:28;9.10;;;4.03;;
76536;SDS011;65381;51.254;15.592;2023-02-15T08:41:56;11.43;;;5.30;;
76536;SDS011;65381;51.254;15.592;2023-02-15T08:44:24;9.80;;;4.57;;
76536;SDS011;65381;51.254;15.592;2023-02-15T08:46:53;12.40;;;6.68;;
76536;SDS011;65381;51.254;15.592;2023-02-15T08:49:21;15.63;;;7.53;;
76536;SDS011;65381;51.254;15.592;2023-02-15T08:51:52;19.55;;;6.70;;
76536;SDS011;65381;51.254;15.592;2023-02-15T08:54:20;12.88;;;6.15;;
76536;SDS011;65381;51.254;15.592;2023-02-15T08:56:49;13.85;;;5.35;;
76536;SDS011;65381;51.254;15.592;2023-02-15T08:59:21;6.40;;;5.03;;
76536;SDS011;65381;51.254;15.592;2023-02-15T09:01:53;9.98;;;5.50;;
76536;SDS011;65381;51.254;15.592;2023-02-15T09:04:23;14.48;;;6.82;;
76536;SDS011;65381;51.254;15.592;2023-02-15T09:06:51;16.08;;;5.28;;
76536;SDS011;65381;51.254;15.592;2023-02-15T09:09:21;7.30;;;4.93;;
76536;SDS011;65381;51.254;15.592;2023-02-15T09:11:50;16.40;;;6.82;;
76536;SDS011;65381;51.254;15.592;2023-02-15T09:14:25;11.95;;;6.53;;
76536;SDS011;65381;51.254;15.592;2023-02-15T09:16:54;15.25;;;7.72;;
76536;SDS011;65381;51.254;15.592;2023-02-15T09:19:23;18.63;;;7.43;;
76536;SDS011;65381;51.254;15.592;2023-02-15T09:21:52;12.95;;;7.05;;
76536;SDS011;65381;51.254;15.592;2023-02-15T09:24:20;13.75;;;7.10;;
76536;SDS011;65381;51.254;15.592;2023-02-15T09:26:49;16.27;;;7.70;;
76536;SDS011;65381;51.254;15.592;2023-02-15T09:29:18;15.10;;;8.70;;
76536;SDS011;65381;51.254;15.592;2023-02-15T09:31:50;22.70;;;9.15;;
76536;SDS011;65381;51.254;15.592;2023-02-15T09:34:19;13.38;;;5.90;;
76536;SDS011;65381;51.254;15.592;2023-02-15T09:36:49;20.17;;;7.82;;
76536;SDS011;65381;51.254;15.592;2023-02-15T09:39:22;14.02;;;7.40;;
76536;SDS011;65381;51.254;15.592;2023-02-15T10:14:56;15.27;;;6.82;;
76536;SDS011;65381;51.254;15.592;2023-02-15T10:17:54;12.38;;;6.95;;
76536;SDS011;65381;51.254;15.592;2023-02-15T10:20:44;17.48;;;8.50;;
76536;SDS011;65381;51.254;15.592;2023-02-15T10:26:43;21.27;;;8.25;;
76536;SDS011;65381;51.254;15.592;2023-02-15T10:32:23;16.55;;;9.35;;
76536;SDS011;65381;51.254;15.592;2023-02-15T10:35:59;17.20;;;7.13;;
76536;SDS011;65381;51.254;15.592;2023-02-15T10:38:06;18.75;;;8.05;;
76536;SDS011;65381;51.254;15.592;2023-02-15T10:43:23;21.17;;;8.55;;
76536;SDS011;65381;51.254;15.592;2023-02-15T10:46:18;18.83;;;9.98;;
76536;SDS011;65381;51.254;15.592;2023-02-15T10:54:22;25.25;;;10.35;;
76536;SDS011;65381;51.254;15.592;2023-02-15T10:57:34;20.15;;;8.80;;
76536;SDS011;65381;51.254;15.592;2023-02-15T11:00:13;19.08;;;8.32;;
76536;SDS011;65381;51.254;15.592;2023-02-15T11:02:56;25.38;;;11.05;;
76536;SDS011;65381;51.254;15.592;2023-02-15T11:05:39;20.42;;;10.27;;
76536;SDS011;65381;51.254;15.592;2023-02-15T11:08:12;20.00;;;10.32;;
76536;SDS011;65381;51.254;15.592;2023-02-15T11:10:48;20.30;;;9.90;;
76536;SDS011;65381;51.254;15.592;2023-02-15T11:13:27;17.48;;;8.52;;
76536;SDS011;65381;51.254;15.592;2023-02-15T11:16:08;17.60;;;7.50;;
76536;SDS011;65381;51.254;15.592;2023-02-15T11:19:01;20.45;;;8.07;;
76536;SDS011;65381;51.254;15.592;2023-02-15T11:21:37;18.90;;;9.25;;
76536;SDS011;65381;51.254;15.592;2023-02-15T11:24:13;19.38;;;7.30;;
76536;SDS011;65381;51.254;15.592;2023-02-15T11:29:35;19.10;;;9.43;;
76536;SDS011;65381;51.254;15.592;2023-02-15T11:32:17;19.75;;;9.38;;
76536;SDS011;65381;51.254;15.592;2023-02-15T11:35:05;15.57;;;8.07;;
76536;SDS011;65381;51.254;15.592;2023-02-15T11:40:27;20.08;;;9.82;;
76536;SDS011;65381;51.254;15.592;2023-02-15T11:43:00;16.88;;;7.60;;
76536;SDS011;65381;51.254;15.592;2023-02-15T11:45:33;14.20;;;7.47;;
76536;SDS011;65381;51.254;15.592;2023-02-15T11:48:05;15.77;;;8.40;;
76536;SDS011;65381;51.254;15.592;2023-02-15T11:50:37;12.02;;;6.07;;
76536;SDS011;65381;51.254;15.592;2023-02-15T11:53:09;16.15;;;7.35;;
76536;SDS011;65381;51.254;15.592;2023-02-15T11:55:38;16.08;;;7.53;;
76536;SDS011;65381;51.254;15.592;2023-02-15T11:58:23;13.25;;;6.63;;
76536;SDS011;65381;51.254;15.592;2023-02-15T12:09:32;31.88;;;6.88;;
76536;SDS011;65381;51.254;15.592;2023-02-15T12:12:21;15.45;;;6.97;;
76536;SDS011;65381;51.254;15.592;2023-02-15T12:14:58;17.85;;;9.50;;
76536;SDS011;65381;51.254;15.592;2023-02-15T12:17:29;25.48;;;9.10;;
76536;SDS011;65381;51.254;15.592;2023-02-15T12:20:02;18.10;;;9.13;;
76536;SDS011;65381;51.254;15.592;2023-02-15T12:22:35;15.88;;;8.32;;
76536;SDS011;65381;51.254;15.592;2023-02-15T12:27:50;17.20;;;7.65;;
76536;SDS011;65381;51.254;15.592;2023-02-15T12:33:14;12.10;;;7.63;;
76536;SDS011;65381;51.254;15.592;2023-02-15T12:35:46;22.45;;;9.13;;
76536;SDS011;65381;51.254;15.592;2023-02-15T12:40:56;12.70;;;6.45;;
76536;SDS011;65381;51.254;15.592;2023-02-15T12:43:36;10.40;;;5.68;;
76536;SDS011;65381;51.254;15.592;2023-02-15T12:46:24;19.98;;;5.50;;
76536;SDS011;65381;51.254;15.592;2023-02-15T12:49:05;9.15;;;5.28;;
76536;SDS011;65381;51.254;15.592;2023-02-15T12:51:46;21.02;;;7.55;;
76536;SDS011;65381;51.254;15.592;2023-02-15T12:59:50;14.20;;;6.28;;
76536;SDS011;65381;51.254;15.592;2023-02-15T13:05:04;22.27;;;9.15;;
76536;SDS011;65381;51.254;15.592;2023-02-15T13:07:45;24.33;;;9.40;;
76536;SDS011;65381;51.254;15.592;2023-02-15T13:10:26;15.55;;;7.72;;
76536;SDS011;65381;51.254;15.592;2023-02-15T13:12:56;14.70;;;6.03;;
76536;SDS011;65381;51.254;15.592;2023-02-15T13:18:01;16.13;;;8.85;;
76536;SDS011;65381;51.254;15.592;2023-02-15T13:20:31;22.15;;;8.73;;
76536;SDS011;65381;51.254;15.592;2023-02-15T13:25:37;17.50;;;6.30;;
76536;SDS011;65381;51.254;15.592;2023-02-15T13:28:17;18.13;;;10.05;;
76536;SDS011;65381;51.254;15.592;2023-02-15T13:30:49;13.70;;;8.60;;
76536;SDS011;65381;51.254;15.592;2023-02-15T13:33:28;18.85;;;8.35;;
76536;SDS011;65381;51.254;15.592;2023-02-15T13:36:11;14.60;;;6.80;;
76536;SDS011;65381;51.254;15.592;2023-02-15T13:39:03;12.95;;;7.45;;
76536;SDS011;65381;51.254;15.592;2023-02-15T13:41:47;34.00;;;10.93;;
76536;SDS011;65381;51.254;15.592;2023-02-15T13:47:10;24.67;;;8.35;;
76536;SDS011;65381;51.254;15.592;2023-02-15T13:49:47;14.65;;;7.13;;
76536;SDS011;65381;51.254;15.592;2023-02-15T13:52:42;20.10;;;8.07;;
76536;SDS011;65381;51.254;15.592;2023-02-15T14:01:52;15.27;;;5.13;;
76536;SDS011;65381;51.254;15.592;2023-02-15T14:04:37;22.55;;;8.98;;
76536;SDS011;65381;51.254;15.592;2023-02-15T14:10:34;17.75;;;9.88;;
76536;SDS011;65381;51.254;15.592;2023-02-15T14:15:26;11.18;;;6.53;;
76536;SDS011;65381;51.254;15.592;2023-02-15T14:21:17;13.68;;;6.63;;
76536;SDS011;65381;51.254;15.592;2023-02-15T14:23:58;14.38;;;6.65;;
76536;SDS011;65381;51.254;15.592;2023-02-15T14:26:40;12.65;;;6.63;;
76536;SDS011;65381;51.254;15.592;2023-02-15T14:29:24;17.92;;;6.97;;
76536;SDS011;65381;51.254;15.592;2023-02-15T14:32:11;7.57;;;5.22;;
76536;SDS011;65381;51.254;15.592;2023-02-15T14:34:57;13.07;;;5.93;;
76536;SDS011;65381;51.254;15.592;2023-02-15T14:37:35;16.27;;;6.82;;
76536;SDS011;65381;51.254;15.592;2023-02-15T14:40:38;10.27;;;6.38;;
76536;SDS011;65381;51.254;15.592;2023-02-15T14:46:34;18.30;;;6.63;;
76536;SDS011;65381;51.254;15.592;2023-02-15T14:49:17;13.95;;;6.53;;
76536;SDS011;65381;51.254;15.592;2023-02-15T14:57:38;11.23;;;5.25;;
76536;SDS011;65381;51.254;15.592;2023-02-15T15:02:18;12.10;;;6.30;;
76536;SDS011;65381;51.254;15.592;2023-02-15T15:12:48;5.88;;;4.68;;
76536;SDS011;65381;51.254;15.592;2023-02-15T15:17:56;9.63;;;7.05;;
76536;SDS011;65381;51.254;15.592;2023-02-15T15:26:22;13.95;;;7.07;;
76536;SDS011;65381;51.254;15.592;2023-02-15T15:31:22;10.38;;;8.57;;
76536;SDS011;65381;51.254;15.592;2023-02-15T15:37:01;8.63;;;5.65;;
76536;SDS011;65381;51.254;15.592;2023-02-15T15:48:36;5.30;;;4.85;;
76536;SDS011;65381;51.254;15.592;2023-02-15T15:51:30;2.85;;;2.70;;
76536;SDS011;65381;51.254;15.592;2023-02-15T15:54:01;6.97;;;5.35;;
76536;SDS011;65381;51.254;15.592;2023-02-15T15:56:35;7.07;;;5.93;;
76536;SDS011;65381;51.254;15.592;2023-02-15T15:59:12;11.00;;;5.82;;
76536;SDS011;65381;51.254;15.592;2023-02-15T16:01:46;4.47;;;4.07;;
76536;SDS011;65381;51.254;15.592;2023-02-15T16:04:23;9.25;;;4.00;;
76536;SDS011;65381;51.254;15.592;2023-02-15T16:10:00;6.13;;;5.53;;
76536;SDS011;65381;51.254;15.592;2023-02-15T16:12:36;7.75;;;2.85;;
76536;SDS011;65381;51.254;15.592;2023-02-15T16:15:15;4.65;;;4.07;;
76536;SDS011;65381;51.254;15.592;2023-02-15T16:17:54;14.23;;;7.15;;
76536;SDS011;65381;51.254;15.592;2023-02-15T16:28:37;14.40;;;5.60;;
76536;SDS011;65381;51.254;15.592;2023-02-15T16:31:10;2.80;;;1.70;;
76536;SDS011;65381;51.254;15.592;2023-02-15T16:33:43;7.13;;;2.83;;
76536;SDS011;65381;51.254;15.592;2023-02-15T16:36:22;3.58;;;2.40;;
76536;SDS011;65381;51.254;15.592;2023-02-15T16:41:28;0.30;;;0.20;;
76536;SDS011;65381;51.254;15.592;2023-02-15T16:43:59;0.55;;;0.55;;
76536;SDS011;65381;51.254;15.592;2023-02-15T16:46:42;1.23;;;1.13;;
76536;SDS011;65381;51.254;15.592;2023-02-15T16:51:57;13.07;;;3.67;;
76536;SDS011;65381;51.254;15.592;2023-02-15T16:54:29;5.97;;;5.38;;
76536;SDS011;65381;51.254;15.592;2023-02-15T16:57:00;3.97;;;2.55;;
76536;SDS011;65381;51.254;15.592;2023-02-15T16:59:34;8.98;;;3.28;;
76536;SDS011;65381;51.254;15.592;2023-02-15T17:02:14;6.63;;;1.92;;
76536;SDS011;65381;51.254;15.592;2023-02-15T17:07:39;8.50;;;4.85;;
76536;SDS011;65381;51.254;15.592;2023-02-15T17:10:27;0.45;;;0.45;;
76536;SDS011;65381;51.254;15.592;2023-02-15T17:13:31;4.47;;;1.13;;
76536;SDS011;65381;51.254;15.592;2023-02-15T17:18:30;0.17;;;0.08;;
76536;SDS011;65381;51.254;15.592;2023-02-15T17:21:17;0.00;;;0.00;;
76536;SDS011;65381;51.254;15.592;2023-02-15T17:24:01;0.80;;;0.80;;
76536;SDS011;65381;51.254;15.592;2023-02-15T17:26:34;0.95;;;0.88;;
76536;SDS011;65381;51.254;15.592;2023-02-15T17:29:11;2.15;;;2.05;;
76536;SDS011;65381;51.254;15.592;2023-02-15T17:32:15;3.40;;;3.13;;
76536;SDS011;65381;51.254;15.592;2023-02-15T17:40:27;3.38;;;3.17;;
76536;SDS011;65381;51.254;15.592;2023-02-15T17:43:03;4.45;;;2.28;;
76536;SDS011;65381;51.254;15.592;2023-02-15T17:45:53;5.90;;;3.53;;
76536;SDS011;65381;51.254;15.592;2023-02-15T17:48:27;4.22;;;3.88;;
76536;SDS011;65381;51.254;15.592;2023-02-15T17:51:04;1.92;;;1.85;;
76536;SDS011;65381;51.254;15.592;2023-02-15T17:53:40;5.07;;;4.38;;
76536;SDS011;65381;51.254;15.592;2023-02-15T17:56:30;3.53;;;3.22;;
76536;SDS011;65381;51.254;15.592;2023-02-15T17:59:05;4.78;;;4.35;;
76536;SDS011;65381;51.254;15.592;2023-02-15T18:01:44;6.85;;;5.55;;
76536;SDS011;65381;51.254;15.592;2023-02-15T18:04:37;3.03;;;2.65;;
76536;SDS011;65381;51.254;15.592;2023-02-15T18:07:27;4.90;;;4.43;;
76536;SDS011;65381;51.254;15.592;2023-02-15T18:10:16;3.35;;;1.75;;
76536;SDS011;65381;51.254;15.592;2023-02-15T18:13:07;11.88;;;5.43;;
76536;SDS011;65381;51.254;15.592;2023-02-15T18:15:41;8.45;;;7.03;;
76536;SDS011;65381;51.254;15.592;2023-02-15T18:18:11;6.82;;;5.13;;
76536;SDS011;65381;51.254;15.592;2023-02-15T18:20:42;14.30;;;5.20;;
76536;SDS011;65381;51.254;15.592;2023-02-15T18:23:14;5.07;;;4.30;;
76536;SDS011;65381;51.254;15.592;2023-02-15T18:25:47;7.88;;;4.93;;
76536;SDS011;65381;51.254;15.592;2023-02-15T18:28:18;6.07;;;5.25;;
76536;SDS011;65381;51.254;15.592;2023-02-15T18:30:48;5.00;;;4.60;;
76536;SDS011;65381;51.254;15.592;2023-02-15T18:33:24;7.20;;;5.63;;
76536;SDS011;65381;51.254;15.592;2023-02-15T18:38:35;8.70;;;4.13;;
76536;SDS011;65381;51.254;15.592;2023-02-15T18:41:05;6.63;;;5.22;;
76536;SDS011;65381;51.254;15.592;2023-02-15T18:43:35;12.75;;;9.02;;